עמוד ראשי
METAR-TAF:

METAR-TAF

שדות תעופה :

Coolangatta, אוסטרליה

קו רוחב: 28-10S, קו אורך: 153-30E, גובה: 6מטר

תצפית מזג אוויר נוכחית

הדו"ח נערך לפני 29דקות, בשעה 10:00 UTC
רוח 8קשר מכיוון דרום/דרום-מערב
טמפרטורת 15 צלסיוס
לחות 72%
לחץ 1012 hPa
ראות 10 קילומטר או יותר

METAR: YBCG 151000Z AUTO 21008KT 9999 // NCD 15/10 Q1012 RF00.0/000.0

זמן: 20:29 (10:29 UTC)

תחזית

הדו"ח נערך לפני 2 שעות ו 26דקות, בשעה 08:03 UTC
תחזית בתוקף מ 15 ב 09 UTC עד 16 ב 06 UTC
רוח 8קשר מכיוון דרום/דרום-מערב
ראות 10 קילומטר או יותר
ללא עננים שבסיסם נמוך מ 5000 רגל או קומולונימבוס
מ 16 ב 0000UTC
רוח 14קשר מכיוון דרום/דרום-מערב
ראות 10 קילומטר או יותר
ללא עננים שבסיסם נמוך מ 5000 רגל או קומולונימבוס

TAF: YBCG 150803Z 1509/1606 20008KT CAVOK FM160000 20014KT CAVOK

תצפיות ותחזיות מזג אוויר לגבי יותר מ- 4,000 שדות תעופה ברחבי העולם. דוחות METAR ו- TAF.

התחנות הזמינות מסומנות בנקודות צהובות ואדומות על גבי המפה.

העבר את העכבר לנקודה הצבעונית על מנת לראות את שם התחנה.

לאחר מכן, לחץ כדי לראות את תוכן ואת תחזיות מזג האוויר.

כדי לשנות את המפה: לחץ על הכפתורים הירוקים עם הפלוס השחור כדי להתקרב; על הכפתור הירוק עם המקף כדי להתרחק; או בחיצים הירוקים למפות סמוכות.


METAR-TAF: